createdAt,value
2023-05-01T00:01:00.826Z,4.70
2023-05-01T00:03:27.692Z,5.20
2023-05-01T00:05:59.625Z,4.70
2023-05-01T00:08:26.411Z,4.97
2023-05-01T00:10:52.918Z,4.23
2023-05-01T00:13:21.968Z,4.23
2023-05-01T00:15:48.824Z,6.17
2023-05-01T00:18:16.722Z,5.63
2023-05-01T00:20:43.313Z,6.87
2023-05-01T00:23:09.778Z,6.40
2023-05-01T00:25:36.249Z,4.47
2023-05-01T00:28:03.248Z,5.00
2023-05-01T00:30:29.688Z,7.47
2023-05-01T00:32:56.261Z,5.30
2023-05-01T00:35:22.750Z,5.53
2023-05-01T00:37:49.205Z,8.20
2023-05-01T00:40:15.687Z,7.77
2023-05-01T00:42:42.155Z,5.20
2023-05-01T00:45:08.904Z,5.37
2023-05-01T00:47:35.962Z,4.20
2023-05-01T00:50:03.664Z,4.43
2023-05-01T00:52:30.140Z,6.20
2023-05-01T00:54:57.568Z,5.50
2023-05-01T00:57:24.091Z,6.37
2023-05-01T00:59:50.563Z,7.33
2023-05-01T01:02:17.140Z,5.17
2023-05-01T01:04:47.131Z,4.30
2023-05-01T01:07:29.292Z,4.07
2023-05-01T01:10:14.583Z,5.47
2023-05-01T01:12:58.709Z,5.60
2023-05-01T01:15:36.350Z,4.73
2023-05-01T01:18:05.885Z,5.80
2023-05-01T01:20:38.119Z,5.03
2023-05-01T01:23:07.791Z,5.30
2023-05-01T01:25:49.683Z,6.00
2023-05-01T01:28:52.450Z,4.60
2023-05-01T01:31:28.790Z,4.90
2023-05-01T01:33:55.470Z,5.03
2023-05-01T01:36:42.063Z,4.93
2023-05-01T01:39:21.548Z,10.77
2023-05-01T01:41:49.699Z,7.10
2023-05-01T01:44:21.933Z,11.87
2023-05-01T01:46:49.953Z,12.67
2023-05-01T01:49:20.830Z,15.30
2023-05-01T01:51:48.730Z,16.47
2023-05-01T01:54:18.627Z,14.13
2023-05-01T01:56:46.215Z,16.17
2023-05-01T01:59:13.994Z,13.80
2023-05-01T02:01:42.229Z,12.97
2023-05-01T02:04:10.008Z,10.87
2023-05-01T02:06:38.010Z,13.13
2023-05-01T02:09:06.567Z,12.10
2023-05-01T02:11:33.922Z,9.80
2023-05-01T02:14:01.566Z,11.50
2023-05-01T02:16:28.349Z,13.20
2023-05-01T02:18:56.080Z,10.23
2023-05-01T02:21:23.506Z,11.07
2023-05-01T02:23:50.099Z,9.20
2023-05-01T02:26:19.435Z,9.77
2023-05-01T02:28:45.880Z,9.47
2023-05-01T02:31:12.411Z,12.10
2023-05-01T02:33:38.932Z,11.33
2023-05-01T02:36:05.749Z,10.07
2023-05-01T02:38:32.766Z,9.67
2023-05-01T02:41:00.806Z,9.20
2023-05-01T02:43:27.854Z,8.97
2023-05-01T02:45:55.210Z,9.73
2023-05-01T02:48:27.597Z,7.10
2023-05-01T02:50:55.888Z,7.20
2023-05-01T02:53:22.512Z,6.33
2023-05-01T02:55:50.002Z,9.77
2023-05-01T02:58:17.170Z,8.87
2023-05-01T03:00:44.860Z,9.53
2023-05-01T03:03:12.117Z,12.33
2023-05-01T03:05:39.046Z,12.73
2023-05-01T03:08:05.832Z,13.03
2023-05-01T03:10:32.359Z,10.30
2023-05-01T03:12:58.795Z,12.17
2023-05-01T03:15:25.273Z,13.83
2023-05-01T03:17:51.837Z,12.50
2023-05-01T03:20:18.349Z,12.87
2023-05-01T03:22:44.826Z,10.57
2023-05-01T03:25:11.357Z,13.07
2023-05-01T03:27:37.858Z,12.63
2023-05-01T03:30:04.703Z,12.50
2023-05-01T03:32:31.241Z,21.13
2023-05-01T03:34:57.864Z,8.87
2023-05-01T03:37:24.821Z,11.53
2023-05-01T03:39:52.114Z,7.57
2023-05-01T03:42:18.730Z,11.20
2023-05-01T03:44:45.538Z,12.33
2023-05-01T03:47:11.981Z,12.20
2023-05-01T03:49:38.710Z,21.87
2023-05-01T03:52:05.212Z,28.03
2023-05-01T03:54:31.745Z,23.10
2023-05-01T03:56:58.622Z,37.30
2023-05-01T03:59:25.152Z,19.23
2023-05-01T04:01:52.052Z,16.27
2023-05-01T04:04:18.594Z,16.07
2023-05-01T04:06:45.339Z,17.17
2023-05-01T04:09:12.349Z,11.33
2023-05-01T04:11:38.788Z,10.53
2023-05-01T04:14:05.546Z,11.03
2023-05-01T04:16:32.240Z,10.03
2023-05-01T04:18:58.861Z,12.70
2023-05-01T04:21:25.324Z,14.80
2023-05-01T04:23:51.784Z,12.70
2023-05-01T04:26:18.328Z,15.30
2023-05-01T04:28:44.817Z,15.93
2023-05-01T04:31:11.415Z,13.43
2023-05-01T04:33:37.963Z,10.90
2023-05-01T04:36:04.535Z,14.17
2023-05-01T04:38:31.173Z,11.83
2023-05-01T04:40:57.746Z,14.23
2023-05-01T04:43:24.512Z,14.00
2023-05-01T04:45:50.990Z,16.13
2023-05-01T04:48:17.565Z,17.23
2023-05-01T04:50:44.402Z,11.20
2023-05-01T04:53:10.923Z,10.77
2023-05-01T04:55:37.480Z,12.40
2023-05-01T04:58:04.971Z,11.83
2023-05-01T05:00:31.779Z,9.30
2023-05-01T05:02:58.348Z,10.43
2023-05-01T05:05:24.842Z,9.60
2023-05-01T05:07:51.399Z,9.10
2023-05-01T05:10:17.917Z,7.37
2023-05-01T05:12:44.375Z,6.47
2023-05-01T05:15:11.406Z,6.40
2023-05-01T05:17:37.986Z,6.23
2023-05-01T05:20:04.699Z,4.63
2023-05-01T05:22:31.259Z,5.80
2023-05-01T05:25:04.160Z,7.10
2023-05-01T05:27:32.545Z,58.87
2023-05-01T05:29:59.178Z,30.00
2023-05-01T05:32:25.776Z,21.30
2023-05-01T05:34:52.332Z,7.20
2023-05-01T05:37:18.803Z,7.00
2023-05-01T05:39:45.324Z,6.53
2023-05-01T05:42:11.778Z,6.93
2023-05-01T05:44:39.232Z,8.27
2023-05-01T05:47:06.215Z,7.00
2023-05-01T05:49:32.726Z,7.97
2023-05-01T05:51:59.166Z,6.80
2023-05-01T05:54:25.641Z,5.30
2023-05-01T05:56:52.143Z,5.07
2023-05-01T05:59:18.770Z,5.73
2023-05-01T06:01:45.255Z,6.70
2023-05-01T06:04:14.083Z,7.93
2023-05-01T06:06:40.626Z,7.37
2023-05-01T06:09:08.890Z,8.90
2023-05-01T06:11:35.373Z,8.23
2023-05-01T06:14:02.902Z,9.37
2023-05-01T06:16:29.683Z,9.57
2023-05-01T06:18:56.526Z,6.13
2023-05-01T06:21:22.997Z,7.67
2023-05-01T06:23:49.512Z,7.03
2023-05-01T06:26:16.031Z,4.27
2023-05-01T06:28:42.506Z,4.03
2023-05-01T06:31:09.036Z,6.53
2023-05-01T06:33:35.581Z,8.50
2023-05-01T06:36:02.453Z,6.23
2023-05-01T06:38:29.083Z,5.33
2023-05-01T06:40:55.734Z,5.50
2023-05-01T06:43:22.222Z,5.40
2023-05-01T06:45:48.981Z,6.40
2023-05-01T06:48:15.593Z,4.83
2023-05-01T06:50:42.071Z,5.90
2023-05-01T06:53:08.504Z,5.27
2023-05-01T06:55:35.930Z,5.60
2023-05-01T06:58:04.873Z,5.53
2023-05-01T07:00:39.033Z,4.43
2023-05-01T07:03:05.679Z,3.80
2023-05-01T07:05:32.268Z,4.00
2023-05-01T07:08:01.566Z,3.67
2023-05-01T07:10:29.227Z,5.80
2023-05-01T07:12:55.687Z,4.17
2023-05-01T07:15:22.382Z,4.27
2023-05-01T07:17:50.122Z,4.10
2023-05-01T07:20:17.176Z,4.97
2023-05-01T07:22:43.849Z,5.17
2023-05-01T07:25:10.434Z,6.27
2023-05-01T07:27:36.863Z,4.37
2023-05-01T07:30:05.095Z,4.20
2023-05-01T07:32:32.171Z,4.13
2023-05-01T07:34:58.838Z,4.53
2023-05-01T07:37:27.166Z,6.43
2023-05-01T07:39:53.783Z,5.40
2023-05-01T07:42:20.284Z,3.97
2023-05-01T07:44:46.943Z,5.10
2023-05-01T07:47:13.527Z,5.80
2023-05-01T07:49:40.210Z,4.47
2023-05-01T07:52:07.697Z,4.73
2023-05-01T07:54:34.587Z,4.20
2023-05-01T07:57:06.676Z,5.65
2023-05-01T07:59:33.185Z,5.87
2023-05-01T08:01:59.773Z,4.97
2023-05-01T08:04:27.615Z,5.47
2023-05-01T08:06:54.314Z,5.97
2023-05-01T08:09:20.914Z,4.27
2023-05-01T08:11:47.383Z,6.47
2023-05-01T08:14:13.951Z,4.53
2023-05-01T08:16:40.597Z,3.80
2023-05-01T08:19:07.186Z,4.97
2023-05-01T08:21:33.661Z,4.43
2023-05-01T08:24:00.260Z,4.97
2023-05-01T08:26:26.918Z,4.50
2023-05-01T08:28:53.471Z,3.40
2023-05-01T08:31:21.205Z,5.00
2023-05-01T08:33:47.756Z,5.50
2023-05-01T08:36:14.238Z,5.90
2023-05-01T08:38:40.911Z,4.17
2023-05-01T08:41:08.170Z,5.23
2023-05-01T08:43:34.816Z,3.53
2023-05-01T08:46:01.651Z,2.90
2023-05-01T08:48:28.685Z,4.13
2023-05-01T08:50:57.097Z,5.73
2023-05-01T08:53:24.242Z,4.93
2023-05-01T08:55:52.240Z,2.67
2023-05-01T08:58:19.847Z,2.90
2023-05-01T09:00:47.069Z,3.07
2023-05-01T09:03:17.617Z,4.43
2023-05-01T09:05:44.651Z,3.60
2023-05-01T09:08:11.143Z,2.93
2023-05-01T09:10:43.034Z,5.37
2023-05-01T09:13:10.076Z,4.33
2023-05-01T09:15:36.808Z,4.20
2023-05-01T09:18:04.244Z,5.40
2023-05-01T09:20:32.618Z,4.87
2023-05-01T09:22:59.174Z,3.33
2023-05-01T09:25:25.687Z,2.83
2023-05-01T09:27:52.265Z,3.80
2023-05-01T09:30:30.866Z,3.53
2023-05-01T09:33:06.762Z,3.20
2023-05-01T09:35:47.866Z,3.57
2023-05-01T09:38:17.427Z,2.43
2023-05-01T09:40:43.871Z,4.17
2023-05-01T09:43:11.760Z,3.47
2023-05-01T09:45:40.190Z,6.53
2023-05-01T09:48:13.691Z,2.97
2023-05-01T09:50:42.412Z,2.97
2023-05-01T09:53:08.884Z,3.60
2023-05-01T09:55:35.601Z,4.43
2023-05-01T09:58:03.771Z,4.93
2023-05-01T10:00:30.424Z,3.40
2023-05-01T10:02:57.079Z,3.47
2023-05-01T10:05:24.099Z,3.87
2023-05-01T10:07:57.496Z,3.80
2023-05-01T10:10:24.058Z,3.00
2023-05-01T10:12:50.541Z,5.40
2023-05-01T10:15:25.579Z,2.90
2023-05-01T10:17:53.784Z,4.20
2023-05-01T10:20:21.022Z,3.77
2023-05-01T10:22:48.784Z,4.20
2023-05-01T10:25:16.244Z,3.37
2023-05-01T10:27:42.815Z,2.90
2023-05-01T10:30:10.096Z,3.50
2023-05-01T10:32:37.950Z,2.63
2023-05-01T10:35:07.567Z,3.58
2023-05-01T10:37:59.727Z,2.78
2023-05-01T10:40:41.291Z,3.47
2023-05-01T10:43:13.953Z,3.03
2023-05-01T10:45:40.447Z,3.85
2023-05-01T10:48:07.288Z,2.40
2023-05-01T10:50:34.830Z,3.05
2023-05-01T10:53:11.500Z,2.50
2023-05-01T10:55:48.529Z,2.20
2023-05-01T10:58:34.969Z,2.45
2023-05-01T11:01:20.353Z,2.15
2023-05-01T11:03:46.827Z,2.72
2023-05-01T11:06:13.558Z,2.17
2023-05-01T11:08:40.163Z,2.30
2023-05-01T11:11:22.133Z,3.22
2023-05-01T11:14:04.387Z,2.33
2023-05-01T11:16:40.524Z,2.35
2023-05-01T11:19:07.964Z,2.42
2023-05-01T11:21:35.641Z,2.33
2023-05-01T11:24:02.271Z,5.00
2023-05-01T11:26:31.211Z,3.38
2023-05-01T11:29:01.368Z,2.55
2023-05-01T11:31:28.927Z,2.80
2023-05-01T11:33:59.549Z,2.10
2023-05-01T11:36:29.435Z,2.15
2023-05-01T11:38:56.881Z,2.22
2023-05-01T11:41:23.857Z,3.10
2023-05-01T11:43:53.915Z,3.15
2023-05-01T11:46:29.963Z,4.60
2023-05-01T11:48:57.305Z,2.30
2023-05-01T11:51:24.952Z,3.22
2023-05-01T11:54:04.839Z,4.63
2023-05-01T11:56:31.925Z,3.97
2023-05-01T11:58:59.647Z,2.65
2023-05-01T12:01:36.100Z,2.63
2023-05-01T12:04:03.139Z,5.57
2023-05-01T12:06:36.997Z,3.42
2023-05-01T12:09:04.212Z,3.83
2023-05-01T12:11:30.823Z,3.05
2023-05-01T12:13:57.606Z,2.63
2023-05-01T12:16:25.334Z,2.10
2023-05-01T12:18:52.701Z,3.78
2023-05-01T12:21:19.910Z,2.20
2023-05-01T12:23:46.655Z,3.30
2023-05-01T12:26:17.710Z,2.30
2023-05-01T12:28:54.072Z,2.08
2023-05-01T12:31:21.014Z,2.17
2023-05-01T12:33:57.584Z,3.30
2023-05-01T12:36:28.450Z,3.53
2023-05-01T12:39:13.097Z,2.67
2023-05-01T12:41:41.413Z,2.65
2023-05-01T12:44:20.188Z,2.03
2023-05-01T12:46:52.992Z,2.78
2023-05-01T12:49:20.405Z,3.20
2023-05-01T12:51:47.858Z,2.67
2023-05-01T12:54:21.585Z,5.95
2023-05-01T12:56:48.341Z,3.00
2023-05-01T12:59:25.240Z,2.75
2023-05-01T13:01:59.071Z,3.17
2023-05-01T13:04:26.508Z,2.50
2023-05-01T13:06:55.964Z,2.67
2023-05-01T13:09:23.041Z,2.85
2023-05-01T13:12:05.106Z,1.80
2023-05-01T13:14:39.043Z,3.50
2023-05-01T13:17:09.356Z,4.22
2023-05-01T13:19:36.899Z,2.28
2023-05-01T13:22:03.758Z,4.82
2023-05-01T13:24:37.055Z,2.17
2023-05-01T13:27:05.164Z,2.42
2023-05-01T13:29:32.841Z,2.72
2023-05-01T13:31:59.848Z,4.88
2023-05-01T13:34:29.683Z,2.35
2023-05-01T13:36:56.675Z,3.78
2023-05-01T13:39:23.178Z,1.77
2023-05-01T13:41:50.504Z,1.95
2023-05-01T13:44:17.755Z,5.63
2023-05-01T13:46:44.803Z,5.68
2023-05-01T13:49:11.279Z,2.72
2023-05-01T13:51:42.679Z,5.47
2023-05-01T13:54:10.054Z,1.88
2023-05-01T13:56:37.373Z,4.57
2023-05-01T13:59:04.781Z,1.83
2023-05-01T14:01:31.407Z,3.75
2023-05-01T14:03:57.949Z,2.58
2023-05-01T14:06:24.593Z,2.85
2023-05-01T14:08:51.396Z,2.10
2023-05-01T14:11:18.347Z,2.67
2023-05-01T14:13:45.682Z,2.10
2023-05-01T14:16:17.484Z,2.05
2023-05-01T14:18:45.207Z,3.42
2023-05-01T14:21:12.672Z,3.15
2023-05-01T14:23:39.809Z,1.50
2023-05-01T14:26:08.281Z,3.10
2023-05-01T14:28:41.468Z,3.17
2023-05-01T14:31:08.160Z,1.83
2023-05-01T14:33:39.980Z,2.50
2023-05-01T14:36:06.512Z,2.85
2023-05-01T14:38:39.366Z,1.73
2023-05-01T14:41:06.304Z,1.83
2023-05-01T14:43:33.570Z,1.60
2023-05-01T14:46:00.470Z,3.17
2023-05-01T14:48:30.443Z,4.32
2023-05-01T14:50:58.437Z,4.93
2023-05-01T14:53:25.764Z,2.08
2023-05-01T14:55:52.413Z,3.72
2023-05-01T14:58:18.855Z,2.20
2023-05-01T15:00:45.330Z,2.00
2023-05-01T15:03:11.865Z,2.80
2023-05-01T15:05:39.498Z,2.43
2023-05-01T15:08:06.835Z,2.72
2023-05-01T15:10:33.286Z,4.43
2023-05-01T15:12:59.756Z,2.10
2023-05-01T15:15:26.906Z,3.15
2023-05-01T15:17:53.449Z,3.22
2023-05-01T15:20:19.933Z,1.52
2023-05-01T15:22:46.452Z,2.55
2023-05-01T15:25:12.933Z,3.65
2023-05-01T15:27:39.368Z,2.15
2023-05-01T15:30:06.165Z,4.93
2023-05-01T15:32:32.789Z,2.17
2023-05-01T15:34:59.462Z,2.35
2023-05-01T15:37:26.111Z,2.40
2023-05-01T15:39:52.973Z,2.67
2023-05-01T15:42:19.883Z,2.15
2023-05-01T15:44:47.512Z,2.72
2023-05-01T15:47:14.259Z,3.95
2023-05-01T15:49:41.452Z,3.13
2023-05-01T15:52:07.927Z,3.27
2023-05-01T15:54:34.463Z,2.83
2023-05-01T15:57:04.051Z,2.53
2023-05-01T15:59:30.901Z,2.63
2023-05-01T16:01:57.525Z,2.70
2023-05-01T16:04:23.985Z,2.80
2023-05-01T16:06:50.831Z,2.90
2023-05-01T16:09:17.323Z,1.90
2023-05-01T16:11:44.056Z,2.47
2023-05-01T16:14:12.605Z,3.00
2023-05-01T16:16:41.663Z,2.80
2023-05-01T16:19:08.114Z,2.77
2023-05-01T16:21:44.980Z,4.18
2023-05-01T16:24:11.796Z,2.90
2023-05-01T16:26:40.179Z,2.70
2023-05-01T16:29:07.298Z,2.67
2023-05-01T16:31:47.324Z,3.30
2023-05-01T16:34:22.084Z,2.03
2023-05-01T16:36:48.553Z,2.80
2023-05-01T16:39:16.372Z,3.13
2023-05-01T16:41:45.354Z,3.33
2023-05-01T16:44:12.870Z,4.50
2023-05-01T16:46:51.239Z,3.13
2023-05-01T16:49:17.846Z,2.40
2023-05-01T16:51:44.682Z,4.70
2023-05-01T16:54:11.550Z,4.67
2023-05-01T16:56:38.252Z,3.63
2023-05-01T16:59:04.811Z,2.43
2023-05-01T17:01:31.582Z,3.17
2023-05-01T17:03:58.497Z,2.37
2023-05-01T17:06:25.112Z,3.70
2023-05-01T17:08:51.676Z,2.67
2023-05-01T17:11:19.031Z,2.17
2023-05-01T17:13:45.541Z,7.13
2023-05-01T17:16:12.224Z,3.07
2023-05-01T17:18:38.860Z,5.40
2023-05-01T17:21:06.132Z,3.80
2023-05-01T17:23:32.745Z,5.63
2023-05-01T17:25:59.287Z,3.47
2023-05-01T17:28:25.907Z,4.17
2023-05-01T17:30:52.687Z,4.97
2023-05-01T17:33:19.146Z,6.23
2023-05-01T17:35:45.648Z,4.27
2023-05-01T17:38:12.180Z,6.67
2023-05-01T17:40:38.713Z,7.27
2023-05-01T17:43:05.206Z,5.87
2023-05-01T17:45:31.710Z,7.13
2023-05-01T17:47:58.306Z,5.57
2023-05-01T17:50:24.988Z,7.03
2023-05-01T17:52:51.547Z,5.10
2023-05-01T17:55:18.568Z,7.27
2023-05-01T17:57:45.638Z,8.20
2023-05-01T18:00:12.452Z,8.57
2023-05-01T18:02:39.506Z,11.00
2023-05-01T18:05:06.656Z,10.17
2023-05-01T18:07:33.120Z,10.07
2023-05-01T18:09:59.940Z,8.23
2023-05-01T18:12:26.972Z,10.00
2023-05-01T18:14:53.500Z,12.17
2023-05-01T18:17:21.613Z,6.20
2023-05-01T18:19:48.989Z,8.37
2023-05-01T18:22:15.731Z,10.83
2023-05-01T18:24:42.363Z,8.47
2023-05-01T18:27:09.177Z,9.17
2023-05-01T18:29:35.891Z,11.07
2023-05-01T18:32:03.511Z,11.40
2023-05-01T18:34:30.279Z,9.30
2023-05-01T18:36:56.738Z,7.83
2023-05-01T18:39:23.253Z,8.90
2023-05-01T18:41:50.156Z,12.80
2023-05-01T18:44:17.201Z,10.07
2023-05-01T18:46:44.212Z,8.27
2023-05-01T18:49:10.810Z,3.47
2023-05-01T18:51:37.455Z,9.23
2023-05-01T18:54:05.025Z,4.93
2023-05-01T18:56:31.659Z,8.27
2023-05-01T18:58:58.256Z,9.10
2023-05-01T19:01:25.613Z,9.27
2023-05-01T19:03:52.131Z,6.40
2023-05-01T19:06:18.749Z,9.03
2023-05-01T19:08:45.305Z,5.27
2023-05-01T19:11:11.797Z,7.23
2023-05-01T19:13:38.280Z,6.90
2023-05-01T19:16:04.991Z,6.77
2023-05-01T19:18:33.299Z,10.23
2023-05-01T19:20:59.762Z,9.93
2023-05-01T19:23:27.403Z,11.13
2023-05-01T19:25:53.862Z,7.63
2023-05-01T19:28:20.381Z,5.80
2023-05-01T19:30:46.837Z,7.63
2023-05-01T19:33:13.411Z,6.13
2023-05-01T19:35:40.268Z,6.00
2023-05-01T19:38:06.805Z,9.63
2023-05-01T19:40:33.238Z,10.57
2023-05-01T19:43:00.410Z,8.03
2023-05-01T19:45:28.200Z,5.73
2023-05-01T19:47:54.702Z,5.43
2023-05-01T19:50:21.312Z,5.47
2023-05-01T19:52:47.743Z,4.77
2023-05-01T19:55:14.990Z,8.20
2023-05-01T19:57:41.554Z,5.90
2023-05-01T20:00:08.587Z,3.37
2023-05-01T20:02:35.194Z,4.50
2023-05-01T20:05:02.129Z,4.43
2023-05-01T20:07:30.301Z,6.13
2023-05-01T20:09:57.113Z,6.63
2023-05-01T20:12:23.874Z,4.00
2023-05-01T20:14:50.458Z,5.10
2023-05-01T20:17:17.202Z,4.77
2023-05-01T20:19:43.870Z,7.27
2023-05-01T20:22:10.818Z,6.63
2023-05-01T20:24:37.265Z,6.03
2023-05-01T20:27:04.372Z,4.40
2023-05-01T20:29:30.923Z,6.20
2023-05-01T20:31:58.688Z,3.97
2023-05-01T20:34:25.304Z,5.27
2023-05-01T20:36:52.090Z,5.17
2023-05-01T20:39:18.827Z,4.10
2023-05-01T20:41:45.327Z,3.93
2023-05-01T20:44:11.776Z,5.37
2023-05-01T20:46:38.279Z,5.20
2023-05-01T20:49:08.562Z,4.43
2023-05-01T20:51:35.018Z,7.20
2023-05-01T20:54:01.488Z,5.73
2023-05-01T20:56:27.988Z,9.10
2023-05-01T20:58:54.704Z,4.73
2023-05-01T21:01:21.248Z,7.63
2023-05-01T21:03:47.966Z,8.67
2023-05-01T21:06:15.242Z,5.53
2023-05-01T21:08:41.807Z,5.47
2023-05-01T21:11:08.304Z,6.07
2023-05-01T21:13:34.814Z,9.03
2023-05-01T21:16:02.757Z,5.73
2023-05-01T21:18:32.950Z,5.20
2023-05-01T21:21:01.627Z,9.87
2023-05-01T21:23:28.175Z,7.47
2023-05-01T21:25:54.673Z,5.83
2023-05-01T21:28:21.176Z,7.10
2023-05-01T21:30:48.906Z,7.60
2023-05-01T21:33:17.248Z,6.13
2023-05-01T21:35:45.739Z,4.73
2023-05-01T21:38:12.281Z,4.77
2023-05-01T21:40:41.440Z,9.43
2023-05-01T21:43:08.660Z,3.20
2023-05-01T21:45:40.253Z,6.87
2023-05-01T21:48:09.874Z,3.13
2023-05-01T21:50:38.118Z,2.73
2023-05-01T21:53:06.108Z,3.17
2023-05-01T21:55:33.449Z,4.40
2023-05-01T21:58:00.021Z,3.53
2023-05-01T22:00:27.802Z,3.77
2023-05-01T22:02:54.469Z,4.50
2023-05-01T22:05:22.573Z,3.37
2023-05-01T22:07:51.496Z,2.60
2023-05-01T22:10:18.817Z,4.97
2023-05-01T22:12:46.125Z,3.50
2023-05-01T22:15:13.617Z,3.30
2023-05-01T22:17:40.583Z,3.83
2023-05-01T22:20:07.552Z,2.90
2023-05-01T22:22:34.412Z,4.27
2023-05-01T22:25:00.873Z,3.00
2023-05-01T22:27:27.330Z,7.17
2023-05-01T22:29:54.045Z,3.77
2023-05-01T22:32:21.072Z,4.97
2023-05-01T22:34:47.827Z,3.23
2023-05-01T22:37:14.279Z,4.30
2023-05-01T22:39:40.912Z,2.87
2023-05-01T22:42:07.403Z,3.00
2023-05-01T22:44:33.846Z,3.73
2023-05-01T22:47:00.428Z,2.90
2023-05-01T22:49:32.063Z,4.37
2023-05-01T22:51:58.717Z,3.30
2023-05-01T22:54:25.519Z,3.37
2023-05-01T22:56:51.963Z,4.20
2023-05-01T22:59:19.279Z,2.40
2023-05-01T23:01:46.237Z,3.70
2023-05-01T23:04:13.039Z,5.13
2023-05-01T23:06:40.291Z,3.77
2023-05-01T23:09:07.065Z,2.67
2023-05-01T23:11:33.818Z,3.27
2023-05-01T23:14:00.599Z,2.37
2023-05-01T23:16:27.689Z,3.80
2023-05-01T23:18:55.574Z,3.40
2023-05-01T23:21:22.306Z,4.18
2023-05-01T23:23:48.875Z,3.30
2023-05-01T23:26:33.526Z,3.57
2023-05-01T23:29:00.303Z,3.43
2023-05-01T23:31:27.537Z,3.07
2023-05-01T23:33:54.995Z,2.30
2023-05-01T23:36:21.536Z,2.97
2023-05-01T23:38:48.089Z,4.13
2023-05-01T23:41:15.144Z,3.77
2023-05-01T23:43:41.930Z,5.50
2023-05-01T23:46:08.433Z,3.27
2023-05-01T23:48:35.205Z,3.67
2023-05-01T23:51:03.496Z,4.20
2023-05-01T23:53:30.081Z,3.40
2023-05-01T23:55:56.887Z,3.40
2023-05-01T23:58:23.841Z,5.40
